sensor_id;sensor_type;location;lat;lon;timestamp;P1;durP1;ratioP1;P2;durP2;ratioP2
82372;SDS011;72000;42.828;23.382;2023-08-21T00:01:46;6.53;;;4.60;;
82372;SDS011;72000;42.828;23.382;2023-08-21T00:04:11;9.90;;;4.38;;
82372;SDS011;72000;42.828;23.382;2023-08-21T00:06:37;6.03;;;4.05;;
82372;SDS011;72000;42.828;23.382;2023-08-21T00:09:03;6.78;;;3.90;;
82372;SDS011;72000;42.828;23.382;2023-08-21T00:11:28;6.47;;;4.28;;
82372;SDS011;72000;42.828;23.382;2023-08-21T00:13:54;7.25;;;4.07;;
82372;SDS011;72000;42.828;23.382;2023-08-21T00:16:19;6.68;;;4.10;;
82372;SDS011;72000;42.828;23.382;2023-08-21T00:18:45;6.47;;;4.43;;
82372;SDS011;72000;42.828;23.382;2023-08-21T00:21:11;6.30;;;4.15;;
82372;SDS011;72000;42.828;23.382;2023-08-21T00:23:37;10.35;;;4.45;;
82372;SDS011;72000;42.828;23.382;2023-08-21T00:26:02;7.55;;;4.10;;
82372;SDS011;72000;42.828;23.382;2023-08-21T00:28:28;7.53;;;4.30;;
82372;SDS011;72000;42.828;23.382;2023-08-21T00:31:04;7.72;;;4.07;;
82372;SDS011;72000;42.828;23.382;2023-08-21T00:33:31;8.95;;;3.92;;
82372;SDS011;72000;42.828;23.382;2023-08-21T00:35:57;7.38;;;4.50;;
82372;SDS011;72000;42.828;23.382;2023-08-21T00:38:23;6.50;;;4.32;;
82372;SDS011;72000;42.828;23.382;2023-08-21T00:40:49;7.07;;;4.35;;
82372;SDS011;72000;42.828;23.382;2023-08-21T00:43:14;5.57;;;3.97;;
82372;SDS011;72000;42.828;23.382;2023-08-21T00:45:41;6.68;;;4.10;;
82372;SDS011;72000;42.828;23.382;2023-08-21T00:48:08;6.45;;;4.28;;
82372;SDS011;72000;42.828;23.382;2023-08-21T00:50:35;6.30;;;4.32;;
82372;SDS011;72000;42.828;23.382;2023-08-21T00:53:01;8.20;;;3.97;;
82372;SDS011;72000;42.828;23.382;2023-08-21T00:55:28;7.40;;;4.30;;
82372;SDS011;72000;42.828;23.382;2023-08-21T00:57:54;6.55;;;4.35;;
82372;SDS011;72000;42.828;23.382;2023-08-21T01:00:20;6.57;;;4.32;;
82372;SDS011;72000;42.828;23.382;2023-08-21T01:02:47;6.90;;;3.83;;
82372;SDS011;72000;42.828;23.382;2023-08-21T01:05:13;6.38;;;4.00;;
82372;SDS011;72000;42.828;23.382;2023-08-21T01:07:43;5.95;;;4.05;;
82372;SDS011;72000;42.828;23.382;2023-08-21T01:10:22;6.32;;;3.75;;
82372;SDS011;72000;42.828;23.382;2023-08-21T01:15:40;6.57;;;3.90;;
82372;SDS011;72000;42.828;23.382;2023-08-21T01:18:07;6.35;;;4.20;;
82372;SDS011;72000;42.828;23.382;2023-08-21T01:20:33;9.15;;;4.45;;
82372;SDS011;72000;42.828;23.382;2023-08-21T01:23:03;8.05;;;4.00;;
82372;SDS011;72000;42.828;23.382;2023-08-21T01:25:30;5.95;;;3.72;;
82372;SDS011;72000;42.828;23.382;2023-08-21T01:27:56;7.55;;;3.90;;
82372;SDS011;72000;42.828;23.382;2023-08-21T01:30:22;7.25;;;4.22;;
82372;SDS011;72000;42.828;23.382;2023-08-21T01:35:30;6.72;;;4.03;;
82372;SDS011;72000;42.828;23.382;2023-08-21T01:37:56;5.93;;;3.92;;
82372;SDS011;72000;42.828;23.382;2023-08-21T01:40:23;8.05;;;4.05;;
82372;SDS011;72000;42.828;23.382;2023-08-21T01:42:49;7.63;;;4.30;;
82372;SDS011;72000;42.828;23.382;2023-08-21T01:45:14;6.40;;;3.95;;
82372;SDS011;72000;42.828;23.382;2023-08-21T01:47:40;6.78;;;4.50;;
82372;SDS011;72000;42.828;23.382;2023-08-21T01:50:06;5.90;;;4.18;;
82372;SDS011;72000;42.828;23.382;2023-08-21T01:52:32;8.30;;;4.30;;
82372;SDS011;72000;42.828;23.382;2023-08-21T01:54:57;7.65;;;4.30;;
82372;SDS011;72000;42.828;23.382;2023-08-21T01:57:23;8.82;;;4.50;;
82372;SDS011;72000;42.828;23.382;2023-08-21T01:59:49;9.35;;;4.55;;
82372;SDS011;72000;42.828;23.382;2023-08-21T02:02:14;6.70;;;4.03;;
82372;SDS011;72000;42.828;23.382;2023-08-21T02:04:40;8.50;;;4.80;;
82372;SDS011;72000;42.828;23.382;2023-08-21T02:07:05;6.57;;;3.88;;
82372;SDS011;72000;42.828;23.382;2023-08-21T02:09:32;7.50;;;4.53;;
82372;SDS011;72000;42.828;23.382;2023-08-21T02:11:58;5.63;;;4.00;;
82372;SDS011;72000;42.828;23.382;2023-08-21T02:14:24;7.15;;;4.15;;
82372;SDS011;72000;42.828;23.382;2023-08-21T02:16:49;8.82;;;4.70;;
82372;SDS011;72000;42.828;23.382;2023-08-21T02:19:15;7.53;;;4.10;;
82372;SDS011;72000;42.828;23.382;2023-08-21T02:21:40;7.97;;;4.70;;
82372;SDS011;72000;42.828;23.382;2023-08-21T02:24:06;6.38;;;4.00;;
82372;SDS011;72000;42.828;23.382;2023-08-21T02:26:32;7.32;;;4.38;;
82372;SDS011;72000;42.828;23.382;2023-08-21T02:28:57;6.82;;;4.15;;
82372;SDS011;72000;42.828;23.382;2023-08-21T02:31:23;6.18;;;3.90;;
82372;SDS011;72000;42.828;23.382;2023-08-21T02:33:48;9.25;;;4.40;;
82372;SDS011;72000;42.828;23.382;2023-08-21T02:36:15;8.88;;;4.30;;
82372;SDS011;72000;42.828;23.382;2023-08-21T02:38:41;6.47;;;4.18;;
82372;SDS011;72000;42.828;23.382;2023-08-21T02:41:07;7.93;;;4.78;;
82372;SDS011;72000;42.828;23.382;2023-08-21T02:43:33;6.50;;;4.32;;
82372;SDS011;72000;42.828;23.382;2023-08-21T02:45:59;6.75;;;4.50;;
82372;SDS011;72000;42.828;23.382;2023-08-21T02:48:24;8.32;;;4.65;;
82372;SDS011;72000;42.828;23.382;2023-08-21T02:50:50;6.68;;;4.00;;
82372;SDS011;72000;42.828;23.382;2023-08-21T02:53:15;6.90;;;4.03;;
82372;SDS011;72000;42.828;23.382;2023-08-21T02:55:41;6.00;;;4.32;;
82372;SDS011;72000;42.828;23.382;2023-08-21T02:58:06;6.53;;;3.95;;
82372;SDS011;72000;42.828;23.382;2023-08-21T03:00:32;7.47;;;4.22;;
82372;SDS011;72000;42.828;23.382;2023-08-21T03:02:58;6.38;;;3.85;;
82372;SDS011;72000;42.828;23.382;2023-08-21T03:05:23;7.07;;;4.13;;
82372;SDS011;72000;42.828;23.382;2023-08-21T03:07:49;8.45;;;4.28;;
82372;SDS011;72000;42.828;23.382;2023-08-21T03:10:15;6.80;;;3.85;;
82372;SDS011;72000;42.828;23.382;2023-08-21T03:12:40;7.72;;;4.43;;
82372;SDS011;72000;42.828;23.382;2023-08-21T03:15:06;6.55;;;3.90;;
82372;SDS011;72000;42.828;23.382;2023-08-21T03:17:32;7.18;;;4.00;;
82372;SDS011;72000;42.828;23.382;2023-08-21T03:19:58;8.00;;;4.22;;
82372;SDS011;72000;42.828;23.382;2023-08-21T03:22:23;6.82;;;4.28;;
82372;SDS011;72000;42.828;23.382;2023-08-21T03:24:49;9.35;;;4.47;;
82372;SDS011;72000;42.828;23.382;2023-08-21T03:27:16;5.72;;;4.00;;
82372;SDS011;72000;42.828;23.382;2023-08-21T03:29:44;8.98;;;4.43;;
82372;SDS011;72000;42.828;23.382;2023-08-21T03:32:16;6.35;;;4.22;;
82372;SDS011;72000;42.828;23.382;2023-08-21T03:34:43;7.25;;;4.40;;
82372;SDS011;72000;42.828;23.382;2023-08-21T03:37:09;7.18;;;4.55;;
82372;SDS011;72000;42.828;23.382;2023-08-21T03:39:34;7.05;;;4.60;;
82372;SDS011;72000;42.828;23.382;2023-08-21T03:42:00;7.13;;;4.55;;
82372;SDS011;72000;42.828;23.382;2023-08-21T03:44:26;7.65;;;4.35;;
82372;SDS011;72000;42.828;23.382;2023-08-21T03:46:51;6.57;;;4.03;;
82372;SDS011;72000;42.828;23.382;2023-08-21T03:49:17;6.38;;;4.05;;
82372;SDS011;72000;42.828;23.382;2023-08-21T03:51:42;6.28;;;4.10;;
82372;SDS011;72000;42.828;23.382;2023-08-21T03:54:08;6.22;;;4.03;;
82372;SDS011;72000;42.828;23.382;2023-08-21T03:56:34;6.32;;;4.53;;
82372;SDS011;72000;42.828;23.382;2023-08-21T03:59:00;6.93;;;4.05;;
82372;SDS011;72000;42.828;23.382;2023-08-21T04:01:25;6.90;;;4.40;;
82372;SDS011;72000;42.828;23.382;2023-08-21T04:03:51;8.52;;;4.82;;
82372;SDS011;72000;42.828;23.382;2023-08-21T04:06:17;7.00;;;4.63;;
82372;SDS011;72000;42.828;23.382;2023-08-21T04:08:42;7.20;;;4.30;;
82372;SDS011;72000;42.828;23.382;2023-08-21T04:11:08;6.68;;;4.43;;
82372;SDS011;72000;42.828;23.382;2023-08-21T04:13:34;6.55;;;4.43;;
82372;SDS011;72000;42.828;23.382;2023-08-21T04:16:00;6.97;;;4.40;;
82372;SDS011;72000;42.828;23.382;2023-08-21T04:18:25;7.07;;;4.53;;
82372;SDS011;72000;42.828;23.382;2023-08-21T04:20:51;8.00;;;4.35;;
82372;SDS011;72000;42.828;23.382;2023-08-21T04:23:16;8.57;;;4.60;;
82372;SDS011;72000;42.828;23.382;2023-08-21T04:25:42;7.45;;;4.55;;
82372;SDS011;72000;42.828;23.382;2023-08-21T04:28:10;7.25;;;4.20;;
82372;SDS011;72000;42.828;23.382;2023-08-21T04:30:36;8.02;;;4.82;;
82372;SDS011;72000;42.828;23.382;2023-08-21T04:33:02;9.55;;;4.53;;
82372;SDS011;72000;42.828;23.382;2023-08-21T04:35:35;7.70;;;4.40;;
82372;SDS011;72000;42.828;23.382;2023-08-21T04:38:01;7.10;;;4.75;;
82372;SDS011;72000;42.828;23.382;2023-08-21T04:40:27;7.20;;;4.53;;
82372;SDS011;72000;42.828;23.382;2023-08-21T04:42:53;6.78;;;4.53;;
82372;SDS011;72000;42.828;23.382;2023-08-21T04:45:18;8.27;;;5.30;;
82372;SDS011;72000;42.828;23.382;2023-08-21T04:47:44;7.65;;;5.20;;
82372;SDS011;72000;42.828;23.382;2023-08-21T04:50:09;7.35;;;4.80;;
82372;SDS011;72000;42.828;23.382;2023-08-21T04:52:35;8.07;;;5.07;;
82372;SDS011;72000;42.828;23.382;2023-08-21T04:55:00;7.40;;;4.88;;
82372;SDS011;72000;42.828;23.382;2023-08-21T04:57:26;7.70;;;5.07;;
82372;SDS011;72000;42.828;23.382;2023-08-21T04:59:52;8.23;;;5.05;;
82372;SDS011;72000;42.828;23.382;2023-08-21T05:02:17;6.95;;;5.03;;
82372;SDS011;72000;42.828;23.382;2023-08-21T05:04:43;7.20;;;4.90;;
82372;SDS011;72000;42.828;23.382;2023-08-21T05:07:08;8.05;;;5.07;;
82372;SDS011;72000;42.828;23.382;2023-08-21T05:09:34;7.43;;;5.05;;
82372;SDS011;72000;42.828;23.382;2023-08-21T05:11:59;8.75;;;4.72;;
82372;SDS011;72000;42.828;23.382;2023-08-21T05:14:25;9.40;;;5.10;;
82372;SDS011;72000;42.828;23.382;2023-08-21T05:16:51;7.78;;;5.30;;
82372;SDS011;72000;42.828;23.382;2023-08-21T05:19:16;7.90;;;5.25;;
82372;SDS011;72000;42.828;23.382;2023-08-21T05:21:43;8.13;;;5.22;;
82372;SDS011;72000;42.828;23.382;2023-08-21T05:24:09;8.02;;;5.22;;
82372;SDS011;72000;42.828;23.382;2023-08-21T05:26:37;9.90;;;5.50;;
82372;SDS011;72000;42.828;23.382;2023-08-21T05:29:03;7.53;;;4.82;;
82372;SDS011;72000;42.828;23.382;2023-08-21T05:31:29;9.70;;;5.03;;
82372;SDS011;72000;42.828;23.382;2023-08-21T05:33:55;8.90;;;5.20;;
82372;SDS011;72000;42.828;23.382;2023-08-21T05:36:20;8.27;;;4.93;;
82372;SDS011;72000;42.828;23.382;2023-08-21T05:38:46;7.35;;;5.10;;
82372;SDS011;72000;42.828;23.382;2023-08-21T05:41:13;8.88;;;5.50;;
82372;SDS011;72000;42.828;23.382;2023-08-21T05:43:39;12.43;;;5.50;;
82372;SDS011;72000;42.828;23.382;2023-08-21T05:46:07;9.13;;;5.60;;
82372;SDS011;72000;42.828;23.382;2023-08-21T05:48:33;9.40;;;5.43;;
82372;SDS011;72000;42.828;23.382;2023-08-21T05:50:59;8.40;;;5.63;;
82372;SDS011;72000;42.828;23.382;2023-08-21T05:53:24;9.30;;;5.70;;
82372;SDS011;72000;42.828;23.382;2023-08-21T05:55:50;10.55;;;5.70;;
82372;SDS011;72000;42.828;23.382;2023-08-21T05:58:17;10.70;;;5.57;;
82372;SDS011;72000;42.828;23.382;2023-08-21T06:00:43;8.70;;;5.43;;
82372;SDS011;72000;42.828;23.382;2023-08-21T06:03:09;8.57;;;5.82;;
82372;SDS011;72000;42.828;23.382;2023-08-21T06:05:35;9.05;;;5.10;;
82372;SDS011;72000;42.828;23.382;2023-08-21T06:08:00;7.97;;;4.90;;
82372;SDS011;72000;42.828;23.382;2023-08-21T06:10:26;10.40;;;4.50;;
82372;SDS011;72000;42.828;23.382;2023-08-21T06:12:52;7.15;;;4.50;;
82372;SDS011;72000;42.828;23.382;2023-08-21T06:15:17;6.50;;;4.05;;
82372;SDS011;72000;42.828;23.382;2023-08-21T06:17:43;7.78;;;5.00;;
82372;SDS011;72000;42.828;23.382;2023-08-21T06:20:08;7.95;;;5.18;;
82372;SDS011;72000;42.828;23.382;2023-08-21T06:22:35;9.57;;;5.45;;
82372;SDS011;72000;42.828;23.382;2023-08-21T06:25:01;8.25;;;5.50;;
82372;SDS011;72000;42.828;23.382;2023-08-21T06:27:26;8.52;;;5.63;;
82372;SDS011;72000;42.828;23.382;2023-08-21T06:29:52;10.88;;;5.70;;
82372;SDS011;72000;42.828;23.382;2023-08-21T06:32:18;7.95;;;5.45;;
82372;SDS011;72000;42.828;23.382;2023-08-21T06:34:43;8.85;;;6.00;;
82372;SDS011;72000;42.828;23.382;2023-08-21T06:37:09;9.43;;;5.32;;
82372;SDS011;72000;42.828;23.382;2023-08-21T06:39:34;9.85;;;5.55;;
82372;SDS011;72000;42.828;23.382;2023-08-21T06:42:00;9.43;;;5.30;;
82372;SDS011;72000;42.828;23.382;2023-08-21T06:44:26;10.02;;;5.80;;
82372;SDS011;72000;42.828;23.382;2023-08-21T06:46:52;9.60;;;5.75;;
82372;SDS011;72000;42.828;23.382;2023-08-21T06:49:18;8.63;;;5.40;;
82372;SDS011;72000;42.828;23.382;2023-08-21T06:51:44;9.50;;;6.07;;
82372;SDS011;72000;42.828;23.382;2023-08-21T06:54:09;9.57;;;5.60;;
82372;SDS011;72000;42.828;23.382;2023-08-21T06:56:35;8.52;;;5.85;;
82372;SDS011;72000;42.828;23.382;2023-08-21T06:59:00;8.45;;;5.97;;
82372;SDS011;72000;42.828;23.382;2023-08-21T07:01:27;11.77;;;5.63;;
82372;SDS011;72000;42.828;23.382;2023-08-21T07:03:53;9.18;;;5.78;;
82372;SDS011;72000;42.828;23.382;2023-08-21T07:06:19;9.93;;;5.30;;
82372;SDS011;72000;42.828;23.382;2023-08-21T07:08:44;9.15;;;5.78;;
82372;SDS011;72000;42.828;23.382;2023-08-21T07:11:10;9.00;;;5.63;;
82372;SDS011;72000;42.828;23.382;2023-08-21T07:13:37;9.98;;;5.50;;
82372;SDS011;72000;42.828;23.382;2023-08-21T07:16:03;9.38;;;5.40;;
82372;SDS011;72000;42.828;23.382;2023-08-21T07:18:33;12.13;;;6.00;;
82372;SDS011;72000;42.828;23.382;2023-08-21T07:20:59;11.40;;;5.45;;
82372;SDS011;72000;42.828;23.382;2023-08-21T07:23:25;12.50;;;6.43;;
82372;SDS011;72000;42.828;23.382;2023-08-21T07:25:51;9.07;;;5.60;;
82372;SDS011;72000;42.828;23.382;2023-08-21T07:28:17;12.88;;;5.57;;
82372;SDS011;72000;42.828;23.382;2023-08-21T07:30:42;9.68;;;5.95;;
82372;SDS011;72000;42.828;23.382;2023-08-21T07:33:08;10.98;;;6.03;;
82372;SDS011;72000;42.828;23.382;2023-08-21T07:35:34;11.18;;;6.00;;
82372;SDS011;72000;42.828;23.382;2023-08-21T07:37:59;8.70;;;5.65;;
82372;SDS011;72000;42.828;23.382;2023-08-21T07:40:25;9.25;;;5.80;;
82372;SDS011;72000;42.828;23.382;2023-08-21T07:42:50;9.43;;;5.80;;
82372;SDS011;72000;42.828;23.382;2023-08-21T07:45:16;11.90;;;6.20;;
82372;SDS011;72000;42.828;23.382;2023-08-21T07:47:42;9.13;;;6.20;;
82372;SDS011;72000;42.828;23.382;2023-08-21T07:50:08;9.30;;;5.60;;
82372;SDS011;72000;42.828;23.382;2023-08-21T07:52:34;12.55;;;6.20;;
82372;SDS011;72000;42.828;23.382;2023-08-21T07:55:01;9.25;;;5.90;;
82372;SDS011;72000;42.828;23.382;2023-08-21T07:57:27;11.43;;;6.50;;
82372;SDS011;72000;42.828;23.382;2023-08-21T07:59:53;11.68;;;6.35;;
82372;SDS011;72000;42.828;23.382;2023-08-21T08:02:19;8.05;;;5.93;;
82372;SDS011;72000;42.828;23.382;2023-08-21T08:04:45;9.27;;;5.88;;
82372;SDS011;72000;42.828;23.382;2023-08-21T08:07:11;10.07;;;6.20;;
82372;SDS011;72000;42.828;23.382;2023-08-21T08:09:37;10.02;;;5.72;;
82372;SDS011;72000;42.828;23.382;2023-08-21T08:12:03;8.25;;;5.60;;
82372;SDS011;72000;42.828;23.382;2023-08-21T08:14:28;10.63;;;5.95;;
82372;SDS011;72000;42.828;23.382;2023-08-21T08:16:54;11.30;;;5.60;;
82372;SDS011;72000;42.828;23.382;2023-08-21T08:19:20;11.40;;;5.43;;
82372;SDS011;72000;42.828;23.382;2023-08-21T08:21:45;10.57;;;5.78;;
82372;SDS011;72000;42.828;23.382;2023-08-21T08:24:11;11.68;;;5.53;;
82372;SDS011;72000;42.828;23.382;2023-08-21T08:26:37;9.93;;;5.45;;
82372;SDS011;72000;42.828;23.382;2023-08-21T08:29:03;7.72;;;5.28;;
82372;SDS011;72000;42.828;23.382;2023-08-21T08:31:30;6.90;;;5.10;;
82372;SDS011;72000;42.828;23.382;2023-08-21T08:33:56;8.38;;;5.30;;
82372;SDS011;72000;42.828;23.382;2023-08-21T08:36:22;9.20;;;5.40;;
82372;SDS011;72000;42.828;23.382;2023-08-21T08:38:47;11.05;;;5.55;;
82372;SDS011;72000;42.828;23.382;2023-08-21T08:41:14;9.55;;;5.40;;
82372;SDS011;72000;42.828;23.382;2023-08-21T08:44:03;8.18;;;5.45;;
82372;SDS011;72000;42.828;23.382;2023-08-21T08:46:29;9.35;;;5.20;;
82372;SDS011;72000;42.828;23.382;2023-08-21T08:48:56;12.05;;;5.00;;
82372;SDS011;72000;42.828;23.382;2023-08-21T08:51:23;7.07;;;5.20;;
82372;SDS011;72000;42.828;23.382;2023-08-21T08:53:49;9.95;;;5.55;;
82372;SDS011;72000;42.828;23.382;2023-08-21T08:56:15;7.20;;;5.28;;
82372;SDS011;72000;42.828;23.382;2023-08-21T08:58:41;9.18;;;5.35;;
82372;SDS011;72000;42.828;23.382;2023-08-21T09:01:08;7.18;;;4.85;;
82372;SDS011;72000;42.828;23.382;2023-08-21T09:03:36;7.85;;;5.22;;
82372;SDS011;72000;42.828;23.382;2023-08-21T09:06:01;9.02;;;5.22;;
82372;SDS011;72000;42.828;23.382;2023-08-21T09:08:28;7.10;;;4.95;;
82372;SDS011;72000;42.828;23.382;2023-08-21T09:10:54;10.38;;;5.22;;
82372;SDS011;72000;42.828;23.382;2023-08-21T09:13:19;8.40;;;5.00;;
82372;SDS011;72000;42.828;23.382;2023-08-21T09:15:46;7.63;;;5.45;;
82372;SDS011;72000;42.828;23.382;2023-08-21T09:18:13;9.10;;;5.45;;
82372;SDS011;72000;42.828;23.382;2023-08-21T09:20:40;9.30;;;5.47;;
82372;SDS011;72000;42.828;23.382;2023-08-21T09:23:06;8.50;;;5.43;;
82372;SDS011;72000;42.828;23.382;2023-08-21T09:25:35;11.05;;;5.80;;
82372;SDS011;72000;42.828;23.382;2023-08-21T09:28:04;9.05;;;5.30;;
82372;SDS011;72000;42.828;23.382;2023-08-21T09:30:46;7.78;;;5.20;;
82372;SDS011;72000;42.828;23.382;2023-08-21T09:33:13;7.95;;;5.32;;
82372;SDS011;72000;42.828;23.382;2023-08-21T09:35:39;12.93;;;5.30;;
82372;SDS011;72000;42.828;23.382;2023-08-21T09:38:07;8.57;;;5.88;;
82372;SDS011;72000;42.828;23.382;2023-08-21T09:40:33;8.00;;;5.18;;
82372;SDS011;72000;42.828;23.382;2023-08-21T09:42:58;10.25;;;5.50;;
82372;SDS011;72000;42.828;23.382;2023-08-21T09:45:25;9.25;;;5.57;;
82372;SDS011;72000;42.828;23.382;2023-08-21T09:47:51;8.27;;;4.63;;
82372;SDS011;72000;42.828;23.382;2023-08-21T09:50:18;5.53;;;4.13;;
82372;SDS011;72000;42.828;23.382;2023-08-21T09:52:44;8.02;;;4.95;;
82372;SDS011;72000;42.828;23.382;2023-08-21T09:55:10;7.55;;;4.38;;
82372;SDS011;72000;42.828;23.382;2023-08-21T09:57:37;7.28;;;4.40;;
82372;SDS011;72000;42.828;23.382;2023-08-21T10:00:03;7.75;;;4.45;;
82372;SDS011;72000;42.828;23.382;2023-08-21T10:02:43;7.45;;;4.25;;
82372;SDS011;72000;42.828;23.382;2023-08-21T10:05:13;6.47;;;4.55;;
82372;SDS011;72000;42.828;23.382;2023-08-21T10:07:40;6.35;;;4.47;;
82372;SDS011;72000;42.828;23.382;2023-08-21T10:10:08;8.45;;;4.80;;
82372;SDS011;72000;42.828;23.382;2023-08-21T10:12:33;7.55;;;5.32;;
82372;SDS011;72000;42.828;23.382;2023-08-21T10:14:59;7.60;;;4.75;;
82372;SDS011;72000;42.828;23.382;2023-08-21T10:17:25;7.93;;;5.22;;
82372;SDS011;72000;42.828;23.382;2023-08-21T10:19:50;8.68;;;5.00;;
82372;SDS011;72000;42.828;23.382;2023-08-21T10:22:39;7.55;;;4.88;;
82372;SDS011;72000;42.828;23.382;2023-08-21T10:25:13;9.60;;;5.05;;
82372;SDS011;72000;42.828;23.382;2023-08-21T10:27:44;9.05;;;5.43;;
82372;SDS011;72000;42.828;23.382;2023-08-21T10:30:14;7.40;;;5.05;;
82372;SDS011;72000;42.828;23.382;2023-08-21T10:32:44;8.82;;;4.82;;
82372;SDS011;72000;42.828;23.382;2023-08-21T10:35:20;6.85;;;4.43;;
82372;SDS011;72000;42.828;23.382;2023-08-21T10:40:32;8.45;;;5.10;;
82372;SDS011;72000;42.828;23.382;2023-08-21T10:42:59;7.10;;;5.10;;
82372;SDS011;72000;42.828;23.382;2023-08-21T10:45:25;7.25;;;4.90;;
82372;SDS011;72000;42.828;23.382;2023-08-21T10:47:50;5.78;;;4.78;;
82372;SDS011;72000;42.828;23.382;2023-08-21T10:50:16;9.75;;;5.03;;
82372;SDS011;72000;42.828;23.382;2023-08-21T10:52:43;7.05;;;4.72;;
82372;SDS011;72000;42.828;23.382;2023-08-21T10:55:12;7.38;;;4.70;;
82372;SDS011;72000;42.828;23.382;2023-08-21T10:57:39;6.65;;;5.03;;
82372;SDS011;72000;42.828;23.382;2023-08-21T11:00:11;7.68;;;5.38;;
82372;SDS011;72000;42.828;23.382;2023-08-21T11:02:39;7.28;;;5.22;;
82372;SDS011;72000;42.828;23.382;2023-08-21T11:05:09;7.80;;;5.32;;
82372;SDS011;72000;42.828;23.382;2023-08-21T11:07:36;6.43;;;5.15;;
82372;SDS011;72000;42.828;23.382;2023-08-21T11:10:03;6.95;;;5.55;;
82372;SDS011;72000;42.828;23.382;2023-08-21T11:12:29;6.65;;;5.18;;
82372;SDS011;72000;42.828;23.382;2023-08-21T11:14:54;7.20;;;5.07;;
82372;SDS011;72000;42.828;23.382;2023-08-21T11:17:20;7.10;;;5.20;;
82372;SDS011;72000;42.828;23.382;2023-08-21T11:19:48;6.65;;;5.35;;
82372;SDS011;72000;42.828;23.382;2023-08-21T11:22:15;8.25;;;5.03;;
82372;SDS011;72000;42.828;23.382;2023-08-21T11:24:42;6.40;;;4.80;;
82372;SDS011;72000;42.828;23.382;2023-08-21T11:27:10;6.88;;;5.30;;
82372;SDS011;72000;42.828;23.382;2023-08-21T11:29:40;7.55;;;4.93;;
82372;SDS011;72000;42.828;23.382;2023-08-21T11:32:10;6.57;;;5.20;;
82372;SDS011;72000;42.828;23.382;2023-08-21T11:34:37;7.95;;;5.50;;
82372;SDS011;72000;42.828;23.382;2023-08-21T11:37:04;6.25;;;5.22;;
82372;SDS011;72000;42.828;23.382;2023-08-21T11:39:43;8.95;;;5.47;;
82372;SDS011;72000;42.828;23.382;2023-08-21T11:42:11;8.20;;;5.20;;
82372;SDS011;72000;42.828;23.382;2023-08-21T11:44:47;6.78;;;5.20;;
82372;SDS011;72000;42.828;23.382;2023-08-21T11:47:14;9.95;;;5.38;;
82372;SDS011;72000;42.828;23.382;2023-08-21T11:49:40;9.35;;;5.15;;
82372;SDS011;72000;42.828;23.382;2023-08-21T11:52:07;8.02;;;5.47;;
82372;SDS011;72000;42.828;23.382;2023-08-21T11:54:34;8.07;;;5.60;;
82372;SDS011;72000;42.828;23.382;2023-08-21T11:57:05;7.90;;;5.45;;
82372;SDS011;72000;42.828;23.382;2023-08-21T11:59:31;6.80;;;5.05;;
82372;SDS011;72000;42.828;23.382;2023-08-21T12:01:57;6.70;;;4.68;;
82372;SDS011;72000;42.828;23.382;2023-08-21T12:04:23;6.20;;;5.32;;
82372;SDS011;72000;42.828;23.382;2023-08-21T12:06:50;7.57;;;5.10;;
82372;SDS011;72000;42.828;23.382;2023-08-21T12:09:15;9.10;;;5.38;;
82372;SDS011;72000;42.828;23.382;2023-08-21T12:11:41;7.28;;;5.35;;
82372;SDS011;72000;42.828;23.382;2023-08-21T12:14:07;7.28;;;5.32;;
82372;SDS011;72000;42.828;23.382;2023-08-21T12:16:33;10.73;;;5.50;;
82372;SDS011;72000;42.828;23.382;2023-08-21T12:18:58;7.25;;;5.25;;
82372;SDS011;72000;42.828;23.382;2023-08-21T12:21:24;8.15;;;5.97;;
82372;SDS011;72000;42.828;23.382;2023-08-21T12:23:50;7.78;;;5.07;;
82372;SDS011;72000;42.828;23.382;2023-08-21T12:26:16;7.05;;;5.57;;
82372;SDS011;72000;42.828;23.382;2023-08-21T12:31:13;10.52;;;5.22;;
82372;SDS011;72000;42.828;23.382;2023-08-21T12:33:39;6.85;;;5.05;;
82372;SDS011;72000;42.828;23.382;2023-08-21T12:36:04;6.63;;;4.72;;
82372;SDS011;72000;42.828;23.382;2023-08-21T12:38:30;6.75;;;4.97;;
82372;SDS011;72000;42.828;23.382;2023-08-21T12:40:56;6.68;;;5.15;;
82372;SDS011;72000;42.828;23.382;2023-08-21T12:43:22;8.52;;;5.47;;
82372;SDS011;72000;42.828;23.382;2023-08-21T12:45:47;6.13;;;4.82;;
82372;SDS011;72000;42.828;23.382;2023-08-21T12:48:13;8.43;;;5.20;;
82372;SDS011;72000;42.828;23.382;2023-08-21T12:50:39;6.95;;;5.10;;
82372;SDS011;72000;42.828;23.382;2023-08-21T12:53:05;7.13;;;5.10;;
82372;SDS011;72000;42.828;23.382;2023-08-21T12:55:31;6.50;;;5.38;;
82372;SDS011;72000;42.828;23.382;2023-08-21T12:57:56;6.93;;;5.05;;
82372;SDS011;72000;42.828;23.382;2023-08-21T13:00:22;7.90;;;5.40;;
82372;SDS011;72000;42.828;23.382;2023-08-21T13:02:48;7.78;;;5.32;;
82372;SDS011;72000;42.828;23.382;2023-08-21T13:05:13;7.93;;;5.43;;
82372;SDS011;72000;42.828;23.382;2023-08-21T13:07:40;6.45;;;5.10;;
82372;SDS011;72000;42.828;23.382;2023-08-21T13:10:06;5.68;;;4.97;;
82372;SDS011;72000;42.828;23.382;2023-08-21T13:12:32;8.15;;;5.20;;
82372;SDS011;72000;42.828;23.382;2023-08-21T13:14:58;6.43;;;4.95;;
82372;SDS011;72000;42.828;23.382;2023-08-21T13:17:24;7.25;;;6.03;;
82372;SDS011;72000;42.828;23.382;2023-08-21T13:19:49;9.43;;;5.43;;
82372;SDS011;72000;42.828;23.382;2023-08-21T13:22:17;9.43;;;5.50;;
82372;SDS011;72000;42.828;23.382;2023-08-21T13:24:43;9.38;;;5.45;;
82372;SDS011;72000;42.828;23.382;2023-08-21T13:27:09;7.15;;;5.63;;
82372;SDS011;72000;42.828;23.382;2023-08-21T13:29:35;6.93;;;5.90;;
82372;SDS011;72000;42.828;23.382;2023-08-21T13:32:00;8.32;;;5.45;;
82372;SDS011;72000;42.828;23.382;2023-08-21T13:34:26;7.07;;;5.38;;
82372;SDS011;72000;42.828;23.382;2023-08-21T13:36:52;7.70;;;5.63;;
82372;SDS011;72000;42.828;23.382;2023-08-21T13:39:18;7.28;;;5.72;;
82372;SDS011;72000;42.828;23.382;2023-08-21T13:41:43;9.75;;;5.43;;
82372;SDS011;72000;42.828;23.382;2023-08-21T13:44:09;7.72;;;5.63;;
82372;SDS011;72000;42.828;23.382;2023-08-21T13:46:35;6.60;;;5.35;;
82372;SDS011;72000;42.828;23.382;2023-08-21T13:49:01;9.10;;;5.72;;
82372;SDS011;72000;42.828;23.382;2023-08-21T13:51:26;7.85;;;5.72;;
82372;SDS011;72000;42.828;23.382;2023-08-21T13:53:52;7.82;;;5.60;;
82372;SDS011;72000;42.828;23.382;2023-08-21T13:56:17;8.10;;;5.25;;
82372;SDS011;72000;42.828;23.382;2023-08-21T13:58:43;8.93;;;5.15;;
82372;SDS011;72000;42.828;23.382;2023-08-21T14:01:08;7.47;;;5.20;;
82372;SDS011;72000;42.828;23.382;2023-08-21T14:03:34;6.80;;;5.55;;
82372;SDS011;72000;42.828;23.382;2023-08-21T14:06:00;7.50;;;4.97;;
82372;SDS011;72000;42.828;23.382;2023-08-21T14:08:25;6.43;;;5.03;;
82372;SDS011;72000;42.828;23.382;2023-08-21T14:10:51;6.93;;;5.35;;
82372;SDS011;72000;42.828;23.382;2023-08-21T14:13:17;8.65;;;5.38;;
82372;SDS011;72000;42.828;23.382;2023-08-21T14:15:42;9.13;;;5.05;;
82372;SDS011;72000;42.828;23.382;2023-08-21T14:18:08;7.43;;;4.80;;
82372;SDS011;72000;42.828;23.382;2023-08-21T14:20:33;8.98;;;5.43;;
82372;SDS011;72000;42.828;23.382;2023-08-21T14:22:59;8.93;;;5.15;;
82372;SDS011;72000;42.828;23.382;2023-08-21T14:25:25;9.27;;;5.15;;
82372;SDS011;72000;42.828;23.382;2023-08-21T14:27:51;8.55;;;5.82;;
82372;SDS011;72000;42.828;23.382;2023-08-21T14:30:16;8.88;;;5.47;;
82372;SDS011;72000;42.828;23.382;2023-08-21T14:32:42;6.72;;;5.20;;
82372;SDS011;72000;42.828;23.382;2023-08-21T14:35:07;8.43;;;5.00;;
82372;SDS011;72000;42.828;23.382;2023-08-21T14:37:34;7.75;;;5.18;;
82372;SDS011;72000;42.828;23.382;2023-08-21T14:40:00;8.30;;;4.75;;